Time;durP1;ratioP1;P1;durP2;ratioP2;P2;SDS_P1;SDS_P2;PMS_P1;PMS_P2;Temp;Humidity;BMP_temperature;BMP_pressure;BME280_temperature;BME280_humidity;BME280_pressure;Samples;Min_cycle;Max_cycle;Signal;HPM_P1;HPM_P2
2021/08/06 00:00:07;;;;;;;11.25;6.75;;;;;;;17.33;100.00;98385.31;1692497;83;21507;-72
2021/08/06 00:02:35;;;;;;;23.35;14.60;;;;;;;17.31;100.00;98407.72;1688880;83;21049;-73
2021/08/06 00:05:03;;;;;;;19.62;11.03;;;;;;;17.27;100.00;98412.45;1639126;86;21161;-73
2021/08/06 00:07:29;;;;;;;11.93;8.60;;;;;;;17.22;100.00;98407.27;1626884;86;20958;-73
2021/08/06 00:09:56;;;;;;;25.80;20.85;;;;;;;17.16;100.00;98391.59;1619365;86;20955;-72
2021/08/06 00:12:23;;;;;;;23.98;16.87;;;;;;;17.12;100.00;98395.73;1642691;86;21058;-73
2021/08/06 00:14:51;;;;;;;27.10;18.90;;;;;;;17.10;100.00;98389.77;1616205;88;21549;-73
2021/08/06 00:17:18;;;;;;;28.57;20.70;;;;;;;17.07;100.00;98378.66;1628956;87;21384;-73
2021/08/06 00:19:44;;;;;;;28.55;21.80;;;;;;;17.02;100.00;98359.02;1631875;86;21608;-72
2021/08/06 00:22:11;;;;;;;33.83;24.92;;;;;;;17.01;100.00;98389.31;1628082;87;21027;-73
2021/08/06 00:24:37;;;;;;;36.17;31.15;;;;;;;16.99;100.00;98370.09;1627878;87;20977;-72
2021/08/06 00:27:04;;;;;;;20.88;18.48;;;;;;;16.97;100.00;98374.64;1686117;84;20986;-72
2021/08/06 00:29:31;;;;;;;27.48;20.60;;;;;;;16.95;100.00;98356.80;1656525;85;21590;-70
2021/08/06 00:31:58;;;;;;;7.75;5.37;;;;;;;16.95;100.00;98322.94;1682201;85;20925;-67
2021/08/06 00:34:25;;;;;;;8.58;3.72;;;;;;;16.94;100.00;98294.22;1682379;85;20961;-66
2021/08/06 00:36:54;;;;;;;6.15;4.05;;;;;;;16.93;100.00;98297.59;1657466;85;20941;-66
2021/08/06 00:39:22;;;;;;;8.23;5.87;;;;;;;16.91;100.00;98315.78;1680485;84;21005;-66
2021/08/06 00:41:49;;;;;;;14.13;9.45;;;;;;;16.92;100.00;98286.89;1667159;86;21214;-74
2021/08/06 00:44:17;;;;;;;18.67;13.72;;;;;;;16.91;100.00;98307.47;1679820;85;20905;-67
2021/08/06 00:46:45;;;;;;;24.95;17.30;;;;;;;16.91;100.00;98288.07;1662354;85;21547;-69
2021/08/06 00:49:12;;;;;;;29.60;18.17;;;;;;;16.89;100.00;98277.38;1679809;85;20949;-69
2021/08/06 00:51:40;;;;;;;22.75;16.77;;;;;;;16.89;100.00;98282.91;1679528;85;21069;-69
2021/08/06 00:54:08;;;;;;;26.75;16.50;;;;;;;16.89;100.00;98293.20;1640364;85;21456;-68
2021/08/06 00:56:40;;;;;;;16.62;14.75;;;;;;;16.87;100.00;98288.05;1684366;85;20890;-68
2021/08/06 00:59:08;;;;;;;17.67;11.50;;;;;;;16.86;100.00;98291.21;1679832;85;21385;-68
2021/08/06 01:01:35;;;;;;;11.10;8.03;;;;;;;16.86;100.00;98280.92;1662299;85;21128;-73
2021/08/06 01:04:25;;;;;;;6.20;5.40;;;;;;;16.83;100.00;98253.39;1661741;85;21030;-76
2021/08/06 01:07:06;;;;;;;21.70;13.58;;;;;;;16.83;100.00;98263.09;1655687;86;21141;-74
2021/08/06 01:09:50;;;;;;;16.27;9.70;;;;;;;16.80;100.00;98248.63;1647712;86;21026;-74
2021/08/06 01:12:30;;;;;;;13.68;10.10;;;;;;;16.80;100.00;98227.83;1644531;86;20900;-74
2021/08/06 01:15:00;;;;;;;10.40;7.47;;;;;;;16.81;100.00;98235.56;1644016;87;20908;-75
2021/08/06 01:17:33;;;;;;;13.27;8.37;;;;;;;16.79;100.00;98233.77;1625471;85;21022;-75
2021/08/06 01:20:08;;;;;;;26.62;20.52;;;;;;;16.78;100.00;98230.79;1647045;86;21143;-74
2021/08/06 01:22:59;;;;;;;26.48;21.90;;;;;;;16.76;100.00;98252.55;1609884;88;20952;-75
2021/08/06 01:25:50;;;;;;;31.93;21.05;;;;;;;16.77;100.00;98231.97;1630351;87;20947;-74
2021/08/06 01:28:22;;;;;;;28.60;20.92;;;;;;;16.76;100.00;98258.09;1607089;88;20885;-76
2021/08/06 01:30:50;;;;;;;17.98;12.82;;;;;;;16.78;100.00;98287.01;1631490;87;20900;-75
2021/08/06 01:33:17;;;;;;;10.32;6.80;;;;;;;16.80;100.00;98279.70;1631310;87;21426;-76
2021/08/06 01:35:44;;;;;;;12.15;8.40;;;;;;;16.81;100.00;98275.16;1631326;88;21019;-75
2021/08/06 01:38:12;;;;;;;18.52;9.83;;;;;;;16.83;100.00;98260.91;1612514;87;20999;-75
2021/08/06 01:40:53;;;;;;;21.37;11.15;;;;;;;16.83;100.00;98260.31;1629909;87;20978;-75
2021/08/06 01:43:28;;;;;;;18.02;10.48;;;;;;;16.83;100.00;98270.61;1630569;87;21010;-76
2021/08/06 01:46:09;;;;;;;10.68;7.72;;;;;;;16.82;100.00;98284.26;1630130;87;21634;-74
2021/08/06 01:48:36;;;;;;;10.87;8.00;;;;;;;16.81;100.00;98291.78;1635036;84;21540;-75
2021/08/06 01:51:06;;;;;;;9.70;8.35;;;;;;;16.79;100.00;98276.13;1643858;86;21566;-75
2021/08/06 01:53:38;;;;;;;10.72;8.78;;;;;;;16.79;100.00;98262.27;1606611;88;21058;-75
2021/08/06 01:56:07;;;;;;;13.40;7.67;;;;;;;16.78;100.00;98257.12;1630155;88;26192;-74
2021/08/06 01:58:35;;;;;;;11.33;9.48;;;;;;;16.77;100.00;98243.05;1630222;87;21097;-74
2021/08/06 02:01:03;;;;;;;9.53;6.22;;;;;;;16.78;100.00;98248.80;1638027;86;21517;-74
2021/08/06 02:03:31;;;;;;;15.75;7.75;;;;;;;16.77;100.00;98228.61;1610036;88;21450;-74
2021/08/06 02:06:17;;;;;;;9.98;6.53;;;;;;;16.78;100.00;98228.02;1619324;88;21087;-74
2021/08/06 02:08:47;;;;;;;18.87;9.85;;;;;;;16.78;100.00;98232.17;1641459;84;21461;-74
2021/08/06 02:11:18;;;;;;;20.80;9.73;;;;;;;16.78;100.00;98216.94;1651448;86;21163;-75
2021/08/06 02:13:48;;;;;;;18.23;7.25;;;;;;;16.78;100.00;98219.11;1684175;85;20932;-75
2021/08/06 02:16:16;;;;;;;16.00;11.48;;;;;;;16.79;100.00;98208.83;1637687;86;20947;-74
2021/08/06 02:18:48;;;;;;;16.32;13.18;;;;;;;16.80;100.00;98196.55;1705347;83;20991;-74
2021/08/06 02:21:21;;;;;;;17.55;14.13;;;;;;;16.79;100.00;98186.06;1659791;86;20954;-75
2021/08/06 02:23:50;;;;;;;28.62;14.63;;;;;;;16.81;100.00;98174.59;1683935;83;21101;-74
2021/08/06 02:26:19;;;;;;;16.05;10.25;;;;;;;16.80;100.00;98171.61;1658235;84;20943;-73
2021/08/06 02:28:50;;;;;;;21.10;12.43;;;;;;;16.81;100.00;98162.91;1703919;83;21013;-74
2021/08/06 02:31:19;;;;;;;15.90;13.35;;;;;;;16.81;100.00;98163.50;1685196;83;21507;-74
2021/08/06 02:33:48;;;;;;;16.90;13.15;;;;;;;16.83;100.00;98157.77;1658059;86;20971;-74
2021/08/06 02:36:16;;;;;;;11.30;9.15;;;;;;;16.84;100.00;98160.74;1656014;86;20884;-74
2021/08/06 02:38:44;;;;;;;11.05;4.97;;;;;;;16.87;100.00;98155.02;1652173;86;21043;-74
2021/08/06 02:41:11;;;;;;;8.15;5.70;;;;;;;16.90;100.00;98145.12;1687143;85;21141;-74
2021/08/06 02:43:39;;;;;;;10.68;7.35;;;;;;;16.90;100.00;98126.52;1687094;84;20973;-74
2021/08/06 02:46:08;;;;;;;9.53;7.62;;;;;;;16.93;100.00;98127.11;1687009;85;20996;-74
2021/08/06 02:48:36;;;;;;;16.27;14.58;;;;;;;16.92;100.00;98120.58;1663835;85;21155;-74
2021/08/06 02:51:02;;;;;;;23.77;19.37;;;;;;;16.94;100.00;98108.50;1686968;85;21025;-74
2021/08/06 02:53:29;;;;;;;18.62;13.85;;;;;;;16.95;100.00;98089.30;1641183;87;21532;-75
2021/08/06 02:55:56;;;;;;;7.90;4.72;;;;;;;16.97;100.00;98098.81;1655264;85;21097;-75
2021/08/06 02:58:25;;;;;;;6.95;2.70;;;;;;;16.99;100.00;98097.83;1641258;86;21024;-75
2021/08/06 03:00:52;;;;;;;6.55;2.70;;;;;;;17.03;100.00;98093.09;1637318;86;21134;-75
2021/08/06 03:03:19;;;;;;;5.25;2.72;;;;;;;17.05;100.00;98071.30;1662079;86;21002;-75
2021/08/06 03:05:48;;;;;;;8.78;3.05;;;;;;;17.09;100.00;98075.47;1658491;86;20964;-76
2021/08/06 03:08:14;;;;;;;8.10;3.42;;;;;;;17.12;100.00;98090.72;1658712;86;21058;-75
2021/08/06 03:10:41;;;;;;;7.40;2.77;;;;;;;17.14;100.00;98086.96;1658479;86;20913;-76
2021/08/06 03:13:09;;;;;;;7.37;2.77;;;;;;;17.18;100.00;98083.41;1687223;85;21613;-77
2021/08/06 03:15:36;;;;;;;5.90;2.75;;;;;;;17.19;100.00;98092.72;1686900;85;21109;-77
2021/08/06 03:18:04;;;;;;;11.53;3.00;;;;;;;17.22;100.00;98100.84;1672849;85;20959;-77
2021/08/06 03:20:32;;;;;;;10.40;4.10;;;;;;;17.23;100.00;98099.05;1654865;86;21583;-77
2021/08/06 03:23:00;;;;;;;9.80;3.47;;;;;;;17.26;100.00;98095.49;1662406;86;21012;-76
2021/08/06 03:25:27;;;;;;;7.60;3.20;;;;;;;17.28;100.00;98102.83;1687229;85;21952;-75
2021/08/06 03:27:58;;;;;;;7.55;3.42;;;;;;;17.30;100.00;98106.00;1686912;85;21562;-75
2021/08/06 03:30:26;;;;;;;;;;;;;;;17.30;100.00;98106.00;1676735;85;21513;-75
2021/08/06 03:32:53;;;;;;;3.67;2.67;;;;;;;17.31;100.00;98120.66;1662591;86;20660;-78
2021/08/06 03:35:20;;;;;;;5.25;2.58;;;;;;;17.31;100.00;98112.34;1662636;86;21513;-74
2021/08/06 03:37:48;;;;;;;7.45;3.02;;;;;;;17.31;100.00;98107.58;1681352;83;21096;-68
2021/08/06 03:40:15;;;;;;;7.95;3.87;;;;;;;17.33;100.00;98104.41;1702600;83;20939;-69
2021/08/06 03:42:42;;;;;;;9.33;3.47;;;;;;;17.35;100.00;98098.64;1712755;83;20931;-68
2021/08/06 03:45:11;;;;;;;5.28;2.80;;;;;;;17.38;100.00;98108.16;1712908;83;20934;-70
2021/08/06 03:47:37;;;;;;;5.90;3.37;;;;;;;17.39;100.00;98104.19;1688598;83;20868;-69
2021/08/06 03:50:07;;;;;;;15.85;3.87;;;;;;;17.43;100.00;98096.06;1712891;83;21555;-69
2021/08/06 03:52:35;;;;;;;10.35;3.40;;;;;;;17.43;100.00;98082.80;1712620;83;20983;-73
2021/08/06 03:55:01;;;;;;;6.33;3.60;;;;;;;17.43;100.00;98085.56;1654337;86;21009;-74
2021/08/06 03:57:29;;;;;;;8.35;3.98;;;;;;;17.45;100.00;98078.44;1667590;83;20910;-73
2021/08/06 03:59:55;;;;;;;6.90;3.30;;;;;;;17.47;100.00;98086.36;1627064;87;20872;-72
2021/08/06 04:02:22;;;;;;;5.35;3.37;;;;;;;17.50;100.00;98093.89;1644003;87;21008;-73
2021/08/06 04:04:50;;;;;;;5.12;2.65;;;;;;;17.51;100.00;98085.77;1644311;87;20912;-71
2021/08/06 04:07:17;;;;;;;6.30;2.90;;;;;;;17.52;100.00;98076.84;1644035;86;20881;-71
2021/08/06 04:09:44;;;;;;;8.18;2.80;;;;;;;17.53;100.00;98069.52;1644019;87;20984;-72
2021/08/06 04:12:11;;;;;;;7.47;2.62;;;;;;;17.57;100.00;98064.76;1644039;86;20995;-72
2021/08/06 04:14:38;;;;;;;10.05;2.58;;;;;;;17.64;100.00;98075.06;1649573;83;21156;-71
2021/08/06 04:17:05;;;;;;;7.17;3.22;;;;;;;17.77;100.00;98098.47;1660388;85;20912;-71
2021/08/06 04:19:33;;;;;;;5.12;2.80;;;;;;;17.87;100.00;98094.89;1644061;86;20916;-71
2021/08/06 04:22:00;;;;;;;5.28;2.80;;;;;;;17.98;100.00;98100.39;1644077;87;21012;-70
2021/08/06 04:24:27;;;;;;;4.47;2.45;;;;;;;18.07;100.00;98103.55;1644165;86;20915;-71
2021/08/06 04:26:55;;;;;;;11.85;3.52;;;;;;;18.12;100.00;98104.53;1644128;87;21004;-71
2021/08/06 04:29:22;;;;;;;8.53;3.02;;;;;;;18.17;100.00;98106.90;1643909;86;21003;-74
2021/08/06 04:31:49;;;;;;;5.87;3.17;;;;;;;18.20;100.00;98118.59;1652527;83;20960;-73
2021/08/06 04:34:16;;;;;;;6.67;3.50;;;;;;;18.24;100.00;98126.32;1647664;86;20966;-71
2021/08/06 04:36:43;;;;;;;5.67;3.10;;;;;;;18.27;100.00;98119.17;1643010;85;21604;-70
2021/08/06 04:39:11;;;;;;;5.17;3.67;;;;;;;18.31;100.00;98119.36;1662229;85;21838;-70
2021/08/06 04:41:37;;;;;;;7.65;3.70;;;;;;;18.35;100.00;98117.36;1666378;83;21493;-69
2021/08/06 04:44:04;;;;;;;6.85;4.05;;;;;;;18.38;100.00;98126.28;1672475;85;21505;-74
2021/08/06 04:46:31;;;;;;;9.00;4.25;;;;;;;18.38;100.00;98130.45;1644337;84;21453;-69
2021/08/06 04:48:59;;;;;;;8.48;3.72;;;;;;;18.38;100.00;98133.23;1727396;83;20993;-69
2021/08/06 04:51:26;;;;;;;6.25;3.83;;;;;;;18.41;100.00;98122.70;1727780;83;21940;-69
2021/08/06 04:53:53;;;;;;;6.80;3.87;;;;;;;18.44;100.00;98128.84;1727759;83;20890;-70
2021/08/06 04:56:19;;;;;;;5.08;3.42;;;;;;;18.48;100.00;98130.98;1698913;83;20882;-70
2021/08/06 04:58:46;;;;;;;5.90;3.40;;;;;;;18.53;100.00;98140.10;1715167;83;21101;-70
2021/08/06 05:01:13;;;;;;;11.05;4.83;;;;;;;18.57;100.00;98138.89;1720128;83;21062;-69
2021/08/06 05:03:40;;;;;;;11.75;4.28;;;;;;;18.61;100.00;98145.86;1716267;83;21147;-70
2021/08/06 05:06:06;;;;;;;7.55;3.98;;;;;;;18.68;100.00;98145.23;1690589;84;21004;-69
2021/08/06 05:08:33;;;;;;;6.65;4.33;;;;;;;18.79;100.00;98147.38;1719261;83;21573;-70
2021/08/06 05:11:00;;;;;;;6.97;3.90;;;;;;;18.89;100.00;98158.85;1723315;83;21093;-70
2021/08/06 05:13:27;;;;;;;18.57;4.95;;;;;;;18.95;100.00;98173.32;1719380;83;21062;-70
2021/08/06 05:15:55;;;;;;;15.40;4.55;;;;;;;19.04;100.00;98173.67;1723598;81;20962;-69
2021/08/06 05:18:22;;;;;;;16.00;4.60;;;;;;;19.12;100.00;98168.84;1721498;83;21025;-69
2021/08/06 05:20:49;;;;;;;6.95;3.85;;;;;;;19.20;100.00;98170.98;1719752;83;21447;-69
2021/08/06 05:23:15;;;;;;;6.42;3.25;;;;;;;19.27;100.00;98177.90;1718931;83;21521;-68
2021/08/06 05:25:42;;;;;;;9.65;4.08;;;;;;;19.33;100.00;98186.01;1719199;83;21564;-69
2021/08/06 05:28:10;;;;;;;8.60;3.87;;;;;;;19.39;100.00;98194.13;1719026;83;21132;-70
2021/08/06 05:30:37;;;;;;;15.68;4.17;;;;;;;19.43;100.00;98199.06;1719158;83;20887;-70
2021/08/06 05:33:04;;;;;;;22.55;4.85;;;;;;;19.46;100.00;98191.30;1725491;81;20910;-70
2021/08/06 05:35:31;;;;;;;17.65;4.47;;;;;;;19.45;100.00;98198.85;1689171;84;21077;-71
2021/08/06 05:38:00;;;;;;;11.08;3.80;;;;;;;19.41;100.00;98209.81;1688565;85;20860;-68
2021/08/06 05:40:27;;;;;;;6.15;3.72;;;;;;;19.36;100.00;98208.25;1688121;85;20980;-69
2021/08/06 05:42:56;;;;;;;19.00;4.40;;;;;;;19.31;100.00;98210.66;1707476;83;20882;-69
2021/08/06 05:45:24;;;;;;;5.90;3.75;;;;;;;19.25;100.00;98203.94;1705626;83;20923;-70
2021/08/06 05:47:53;;;;;;;5.47;3.95;;;;;;;19.19;100.00;98202.78;1688156;85;20958;-69
2021/08/06 05:50:25;;;;;;;15.78;5.45;;;;;;;19.16;100.00;98202.20;1688371;85;21533;-70
2021/08/06 05:52:52;;;;;;;10.08;4.87;;;;;;;19.13;100.00;98195.45;1710866;81;21100;-69
2021/08/06 05:55:20;;;;;;;22.48;5.12;;;;;;;19.10;100.00;98198.45;1698765;84;21433;-69
2021/08/06 05:57:49;;;;;;;20.32;5.35;;;;;;;19.09;100.00;98204.41;1698831;84;20881;-69
2021/08/06 06:00:17;;;;;;;19.45;5.55;;;;;;;19.09;100.00;98209.37;1698673;84;20870;-69
2021/08/06 06:02:46;;;;;;;33.25;7.58;;;;;;;19.11;100.00;98203.41;1698287;84;20886;-69
2021/08/06 06:05:16;;;;;;;27.27;6.40;;;;;;;19.12;100.00;98207.18;1697257;84;21452;-69
2021/08/06 06:07:48;;;;;;;27.62;6.33;;;;;;;19.14;100.00;98209.55;1698689;84;21649;-69
2021/08/06 06:10:19;;;;;;;;;;;;;;;19.16;100.00;98207.76;1701460;84;20956;-69
2021/08/06 06:12:46;;;;;;;20.97;5.37;;;;;;;19.16;100.00;98202.98;1698798;84;20085;-68
2021/08/06 06:15:13;;;;;;;35.30;7.78;;;;;;;19.17;100.00;98204.58;1699151;84;20905;-68
2021/08/06 06:17:41;;;;;;;27.32;7.58;;;;;;;19.20;100.00;98196.02;1698787;83;21049;-69
2021/08/06 06:20:09;;;;;;;21.10;5.65;;;;;;;19.24;100.00;98194.01;1712883;82;21543;-68
2021/08/06 06:22:36;;;;;;;13.32;6.37;;;;;;;19.26;100.00;98196.58;1720783;81;20843;-70
2021/08/06 06:25:04;;;;;;;10.03;5.30;;;;;;;19.32;100.00;98198.34;1724466;81;21023;-71
2021/08/06 06:27:31;;;;;;;19.55;6.58;;;;;;;19.34;100.00;98209.25;1718365;81;21004;-70
2021/08/06 06:29:58;;;;;;;37.65;7.35;;;;;;;19.37;100.00;98210.44;1727802;81;21099;-72
2021/08/06 06:32:26;;;;;;;21.50;5.78;;;;;;;19.41;100.00;98209.81;1725578;81;21050;-69
2021/08/06 06:34:53;;;;;;;10.03;5.40;;;;;;;19.44;100.00;98218.73;1724687;83;20993;-69
2021/08/06 06:37:20;;;;;;;12.13;5.00;;;;;;;19.44;100.00;98213.17;1727019;82;21058;-69
2021/08/06 06:39:47;;;;;;;12.10;4.90;;;;;;;19.45;100.00;98222.51;1723616;83;21057;-69
2021/08/06 06:42:13;;;;;;;6.55;3.77;;;;;;;19.47;100.00;98216.53;1693112;84;21512;-69
2021/08/06 06:44:40;;;;;;;7.80;5.05;;;;;;;19.45;100.00;98207.80;1696776;84;21012;-69
2021/08/06 06:47:07;;;;;;;9.18;5.05;;;;;;;19.45;100.00;98207.80;1694797;84;21010;-70
2021/08/06 06:49:35;;;;;;;9.00;4.58;;;;;;;19.42;100.00;98208.02;1696995;82;21056;-69
2021/08/06 06:52:02;;;;;;;15.88;7.08;;;;;;;19.41;100.00;98209.21;1695680;82;21039;-70
2021/08/06 06:54:29;;;;;;;12.93;5.95;;;;;;;19.44;100.00;98201.44;1693588;82;21069;-68
2021/08/06 06:56:56;;;;;;;15.48;6.17;;;;;;;19.48;100.00;98200.03;1694798;84;20987;-68
2021/08/06 06:59:24;;;;;;;13.50;6.22;;;;;;;19.53;100.00;98196.05;1696496;84;21493;-69
2021/08/06 07:01:51;;;;;;;8.48;4.90;;;;;;;19.55;100.00;98191.66;1697534;84;21141;-68
2021/08/06 07:04:17;;;;;;;7.05;4.75;;;;;;;19.58;100.00;98196.41;1697436;83;21027;-69
2021/08/06 07:06:46;;;;;;;7.65;5.00;;;;;;;19.61;100.00;98195.60;1696791;84;20979;-69
2021/08/06 07:09:13;;;;;;;9.28;4.08;;;;;;;19.62;100.00;98201.36;1697638;84;20982;-69
2021/08/06 07:11:41;;;;;;;5.80;3.55;;;;;;;19.67;100.00;98206.47;1697657;83;21064;-69
2021/08/06 07:14:08;;;;;;;10.50;3.50;;;;;;;19.70;100.00;98204.26;1696704;84;21015;-70
2021/08/06 07:16:35;;;;;;;10.05;4.10;;;;;;;19.72;100.00;98210.20;1696872;84;21554;-69
2021/08/06 07:19:01;;;;;;;5.83;4.03;;;;;;;19.75;100.00;98225.30;1696821;83;21990;-69
2021/08/06 07:21:29;;;;;;;10.35;4.00;;;;;;;19.77;100.00;98227.88;1695619;84;21046;-74
2021/08/06 07:23:55;;;;;;;8.80;4.45;;;;;;;19.78;100.00;98212.75;1693017;83;20978;-71
2021/08/06 07:26:22;;;;;;;7.10;3.83;;;;;;;19.81;100.00;98218.10;1693750;82;21087;-71
2021/08/06 07:28:49;;;;;;;12.20;4.58;;;;;;;19.83;100.00;98229.62;1694111;84;20976;-72
2021/08/06 07:31:15;;;;;;;8.48;4.47;;;;;;;19.86;100.00;98222.44;1689932;84;21032;-72
2021/08/06 07:33:42;;;;;;;14.78;4.62;;;;;;;19.87;100.00;98192.00;1695567;83;21018;-72
2021/08/06 07:36:09;;;;;;;9.40;4.78;;;;;;;19.92;100.00;98204.09;1695017;84;21035;-71
2021/08/06 07:38:37;;;;;;;13.53;5.08;;;;;;;19.99;100.00;98209.01;1703750;83;21353;-73
2021/08/06 07:41:04;;;;;;;8.33;4.45;;;;;;;20.10;100.00;98227.03;1705203;82;21058;-72
2021/08/06 07:43:31;;;;;;;6.15;4.22;;;;;;;20.15;100.00;98221.62;1714932;83;21131;-72
2021/08/06 07:45:58;;;;;;;12.80;4.22;;;;;;;20.21;100.00;98202.66;1719133;83;20986;-73
2021/08/06 07:48:25;;;;;;;10.80;4.20;;;;;;;20.26;100.00;98209.14;1715205;83;21027;-72
2021/08/06 07:50:52;;;;;;;7.30;4.42;;;;;;;20.29;100.00;98225.03;1686545;84;21091;-72
2021/08/06 07:53:19;;;;;;;7.55;4.15;;;;;;;20.34;100.00;98238.52;1675494;83;21038;-71
2021/08/06 07:55:46;;;;;;;13.38;4.40;;;;;;;20.41;100.00;98216.80;1684437;83;21171;-72
2021/08/06 07:58:13;;;;;;;9.78;4.22;;;;;;;20.53;100.00;98235.00;1688287;84;21006;-71
2021/08/06 08:00:39;;;;;;;10.00;4.67;;;;;;;20.57;100.00;98228.19;1655980;85;21036;-70
2021/08/06 08:03:07;;;;;;;12.98;5.53;;;;;;;20.59;100.00;98237.52;1656084;86;21103;-69
2021/08/06 08:05:36;;;;;;;10.78;4.80;;;;;;;20.58;100.00;98227.58;1682097;83;21100;-70
2021/08/06 08:08:07;;;;;;;11.10;4.97;;;;;;;20.56;100.00;98227.20;1694070;83;21140;-71
2021/08/06 08:10:36;;;;;;;8.38;4.60;;;;;;;20.59;100.00;98213.83;1684585;83;21617;-72
2021/08/06 08:13:03;;;;;;;12.85;5.58;;;;;;;20.66;100.00;98213.75;1685454;83;21151;-72
2021/08/06 08:15:32;;;;;;;11.70;4.50;;;;;;;20.76;100.00;98226.79;1677687;84;21012;-71
2021/08/06 08:17:59;;;;;;;9.68;4.90;;;;;;;20.82;98.75;98215.34;1673273;85;20995;-74
2021/08/06 08:20:26;;;;;;;11.65;4.90;;;;;;;20.88;100.00;98220.64;1673706;85;21045;-73
2021/08/06 08:22:52;;;;;;;10.05;5.20;;;;;;;20.92;98.94;98214.42;1671241;85;21041;-77
2021/08/06 08:25:19;;;;;;;8.43;5.08;;;;;;;20.97;98.90;98219.54;1688432;85;21005;-73
2021/08/06 08:27:45;;;;;;;15.43;9.00;;;;;;;21.02;99.64;98221.88;1688278;85;20940;-75
2021/08/06 08:30:14;;;;;;;8.45;5.17;;;;;;;21.09;100.00;98219.00;1688291;84;20971;-74
2021/08/06 08:32:41;;;;;;;8.50;5.37;;;;;;;21.25;97.91;98219.03;1688297;84;21139;-73
2021/08/06 08:35:08;;;;;;;13.58;5.65;;;;;;;21.43;96.81;98208.38;1677115;85;21532;-75
2021/08/06 08:37:35;;;;;;;10.50;5.10;;;;;;;21.64;99.17;98212.88;1665154;85;20977;-70
2021/08/06 08:40:04;;;;;;;12.35;5.10;;;;;;;21.91;97.07;98218.45;1650440;87;21033;-71
2021/08/06 08:42:32;;;;;;;19.70;10.28;;;;;;;22.19;95.33;98226.38;1657732;86;21019;-71
2021/08/06 08:45:01;;;;;;;10.10;5.45;;;;;;;22.38;93.70;98226.25;1656802;86;21468;-66
2021/08/06 08:47:30;;;;;;;14.95;9.83;;;;;;;22.51;92.01;98230.61;1682825;83;21460;-68
2021/08/06 08:49:57;;;;;;;13.35;7.67;;;;;;;22.53;90.90;98228.18;1677877;85;20927;-68
2021/08/06 08:52:24;;;;;;;11.68;5.87;;;;;;;22.46;86.75;98245.09;1690974;85;20899;-68
2021/08/06 08:54:51;;;;;;;8.78;4.80;;;;;;;22.45;89.27;98247.70;1696450;84;20907;-72
2021/08/06 08:57:21;;;;;;;10.23;4.62;;;;;;;22.53;91.32;98247.12;1691100;84;21466;-70
2021/08/06 08:59:52;;;;;;;14.23;4.80;;;;;;;22.68;89.61;98265.22;1690965;84;20901;-70
2021/08/06 09:02:19;;;;;;;20.20;5.72;;;;;;;22.85;86.87;98270.34;1690823;84;20893;-70
2021/08/06 09:04:47;;;;;;;8.25;5.00;;;;;;;22.99;88.00;98275.66;1690903;85;20964;-69
2021/08/06 09:07:30;;;;;;;9.98;4.78;;;;;;;23.10;89.28;98273.27;1691197;84;21483;-67
2021/08/06 09:10:26;;;;;;;8.35;4.30;;;;;;;23.17;87.41;98282.89;1690139;84;22004;-68
2021/08/06 09:13:11;;;;;;;10.05;4.87;;;;;;;23.13;85.06;98281.56;1690849;85;21007;-68
2021/08/06 09:15:58;;;;;;;11.25;5.45;;;;;;;22.99;85.59;98291.05;1685862;84;21098;-70
2021/08/06 09:18:38;;;;;;;7.42;4.40;;;;;;;22.88;86.83;98277.09;1666783;84;20930;-67
2021/08/06 09:21:19;;;;;;;12.28;4.75;;;;;;;22.84;89.04;98254.77;1658029;86;20965;-69
2021/08/06 09:24:00;;;;;;;11.63;5.03;;;;;;;22.83;83.47;98247.59;1658136;86;21990;-69
2021/08/06 09:26:34;;;;;;;6.87;4.60;;;;;;;22.90;87.84;98238.27;1657898;86;20925;-72
2021/08/06 09:29:12;;;;;;;11.10;4.58;;;;;;;23.01;87.96;98232.65;1658188;86;20897;-72
2021/08/06 09:31:53;;;;;;;9.35;4.80;;;;;;;23.28;88.62;98228.88;1657818;86;21504;-71
2021/08/06 09:34:26;;;;;;;10.88;4.95;;;;;;;23.59;84.76;98223.22;1658109;86;20977;-73
2021/08/06 09:37:15;;;;;;;8.10;4.42;;;;;;;23.82;83.29;98222.88;1657967;86;22009;-71
2021/08/06 09:39:52;;;;;;;13.10;4.58;;;;;;;24.07;81.59;98219.48;1658650;86;20972;-75
2021/08/06 09:42:38;;;;;;;7.60;4.97;;;;;;;24.28;77.10;98214.12;1651390;83;21020;-78
2021/08/06 09:45:16;;;;;;;11.53;4.22;;;;;;;24.37;79.07;98206.48;1645749;86;20968;-77
2021/08/06 09:47:40;;;;;;;10.28;4.87;;;;;;;24.49;78.14;98212.00;1645807;87;21439;-77
2021/08/06 09:50:11;;;;;;;10.55;5.05;;;;;;;24.62;84.20;98204.43;1645787;87;21968;-78
2021/08/06 09:52:41;;;;;;;12.93;4.62;;;;;;;24.72;73.05;98192.13;1646068;87;21487;-77
2021/08/06 09:55:11;;;;;;;11.70;4.65;;;;;;;24.63;78.24;98194.17;1649163;85;20880;-72
2021/08/06 09:57:44;;;;;;;13.20;4.92;;;;;;;24.48;76.17;98179.56;1649776;86;20948;-73
2021/08/06 10:00:15;;;;;;;11.05;4.72;;;;;;;24.32;80.69;98184.59;1608143;87;20896;-83
2021/08/06 10:02:42;;;;;;;10.68;4.90;;;;;;;24.15;79.96;98183.81;1616912;88;21124;-74
2021/08/06 10:05:14;;;;;;;9.28;4.47;;;;;;;23.96;80.48;98184.70;1616200;88;21459;-71
2021/08/06 10:07:47;;;;;;;13.77;5.13;;;;;;;23.79;80.77;98179.70;1616395;88;21455;-69
2021/08/06 10:10:16;;;;;;;10.90;5.23;;;;;;;23.65;83.61;98183.66;1616179;88;21216;-68
2021/08/06 10:12:46;;;;;;;9.98;5.10;;;;;;;23.59;85.44;98160.20;1616526;88;20932;-69
2021/08/06 10:15:13;;;;;;;11.03;4.67;;;;;;;23.62;85.82;98163.52;1616377;86;21802;-73
2021/08/06 10:17:42;;;;;;;10.82;4.30;;;;;;;23.65;84.91;98158.45;1636880;86;20956;-87
2021/08/06 10:20:12;;;;;;;11.55;4.30;;;;;;;23.63;80.51;98150.30;1652365;86;20916;-82
2021/08/06 10:22:40;;;;;;;9.75;5.00;;;;;;;23.56;79.80;98145.66;1652741;86;21062;-71
2021/08/06 10:25:10;;;;;;;10.13;4.78;;;;;;;23.49;84.07;98131.00;1652458;86;20936;-72
2021/08/06 10:27:37;;;;;;;10.80;4.85;;;;;;;23.46;84.11;98134.06;1652812;86;21147;-72
2021/08/06 10:30:27;;;;;;;8.85;4.75;;;;;;;23.46;87.56;98134.06;1651171;86;20951;-72
2021/08/06 10:33:13;;;;;;;8.93;4.65;;;;;;;23.46;83.60;98145.27;1650872;86;21006;-72
2021/08/06 10:35:48;;;;;;;8.48;4.80;;;;;;;23.47;87.54;98157.25;1619772;86;20932;-71
2021/08/06 10:38:18;;;;;;;14.05;4.87;;;;;;;23.54;85.46;98157.91;1614909;88;21112;-71
2021/08/06 10:40:55;;;;;;;8.38;4.65;;;;;;;23.62;87.77;98163.52;1614061;88;21112;-71
2021/08/06 10:43:43;;;;;;;14.60;5.37;;;;;;;23.69;85.63;98156.32;1636399;87;21670;-71
2021/08/06 10:46:10;;;;;;;9.58;4.35;;;;;;;23.83;85.73;98159.39;1646244;86;21004;-71
2021/08/06 10:48:49;;;;;;;8.20;4.00;;;;;;;23.89;79.40;98159.66;1661708;85;21035;-71
2021/08/06 10:51:26;;;;;;;9.78;4.00;;;;;;;23.85;81.47;98168.77;1661909;85;20964;-71
2021/08/06 10:54:00;;;;;;;12.10;5.12;;;;;;;23.82;81.01;98179.44;1661569;85;21151;-70
2021/08/06 10:56:33;;;;;;;8.13;4.28;;;;;;;23.79;81.21;98189.51;1661697;86;20904;-70
2021/08/06 10:59:05;;;;;;;11.03;4.85;;;;;;;23.77;80.27;98189.77;1661591;86;20940;-70
2021/08/06 11:01:35;;;;;;;13.13;5.03;;;;;;;23.81;77.98;98191.88;1661615;86;37856;-70
2021/08/06 11:04:05;;;;;;;10.65;4.87;;;;;;;23.84;82.93;98186.80;1661674;85;20995;-69
2021/08/06 11:06:38;;;;;;;10.85;4.30;;;;;;;23.87;77.87;98190.91;1661832;86;21144;-70
2021/08/06 11:09:06;;;;;;;9.05;4.30;;;;;;;23.82;75.41;98196.25;1661797;86;21003;-74
2021/08/06 11:12:01;;;;;;;12.65;4.25;;;;;;;23.74;76.14;98190.64;1661590;86;20943;-72
2021/08/06 11:14:41;;;;;;;9.70;5.00;;;;;;;23.67;76.38;98195.83;1661647;85;20911;-69
2021/08/06 11:17:21;;;;;;;8.60;4.28;;;;;;;23.61;75.49;98191.97;1660996;86;20948;-69
2021/08/06 11:19:54;;;;;;;8.68;4.50;;;;;;;23.56;77.32;98195.29;1660643;86;21098;-69
2021/08/06 11:22:33;;;;;;;10.80;4.87;;;;;;;23.44;76.01;98200.92;1660719;85;21561;-70
2021/08/06 11:25:23;;;;;;;7.30;5.00;;;;;;;23.32;77.09;98203.78;1660832;85;21016;-70
2021/08/06 11:27:54;;;;;;;6.72;4.85;;;;;;;23.23;77.50;98199.38;1661129;86;20892;-70
2021/08/06 11:30:26;;;;;;;12.58;5.87;;;;;;;23.14;79.20;98202.58;1661243;86;21117;-70
2021/08/06 11:33:00;;;;;;;14.28;5.28;;;;;;;23.07;77.18;98210.55;1661572;86;21229;-70